^^
Saratoga-Weather Station Historical Data
Daily Summary for March 26, 2020 Units:  English    Metric   Both
Daily Weekly Monthly Yearly Custom
  High: Low: Average:
Temperature: 85.1 °F 60.6 °F 70.3 °F
Dew Point: 69.4 °F 56.5 °F 62.6 °F
Humidity: 95% 58% 77%
Wind Speed: 11mph 0mph 1.1mph
Wind Gust: 17mph - -
Wind- - South
Pressure: 29.9 in 29.8 in -
Precipitation: 0.04 in    
Historical Graphs
 
 
Tabular Data for March 26, 2020
Time Temperature Dew Point Pressure Wind Wind Speed Wind Gust Humidity Rainfall Rate (Hourly) solar
00:03 69.1 °F 60.4 °F 29.9 in Calm   2 mph 74% 0 in 0 W/m2
00:08 68.9 °F 60.3 °F 29.9 in Calm   2 mph 74% 0 in 0 W/m2
00:13 69.1 °F 60.4 °F 29.9 in Calm   2 mph 74% 0 in 0 W/m2
00:18 68.9 °F 60.3 °F 29.9 in Calm   2 mph 74% 0 in 0 W/m2
00:23 68.5 °F 60.3 °F 29.9 in SSE 2 mph 2 mph 75% 0 in 0 W/m2
00:28 68.2 °F 59.9 °F 29.9 in Calm   1 mph 75% 0 in 0 W/m2
00:33 67.8 °F 59.5 °F 29.9 in Calm     75% 0 in 0 W/m2
00:38 67.6 °F 59.7 °F 29.9 in SSE 0.9 mph 2 mph 76% 0 in 0 W/m2
00:43 67.5 °F 59.5 °F 29.9 in SSE 0.9 mph 1 mph 76% 0 in 0 W/m2
00:48 67.3 °F 59.5 °F 29.9 in Calm   1 mph 76% 0 in 0 W/m2
00:53 66.9 °F 59.5 °F 29.9 in Calm   2 mph 77% 0 in 0 W/m2
00:58 66.7 °F 59.7 °F 29.9 in Calm     78% 0 in 0 W/m2
01:04 66.6 °F 59.5 °F 29.9 in Calm   2 mph 78% 0 in 0 W/m2
01:09 66.2 °F 59.2 °F 29.9 in Calm     78% 0 in 0 W/m2
01:14 66 °F 59.4 °F 29.9 in SSE 0.9 mph 1 mph 79% 0 in 0 W/m2
01:19 65.8 °F 59.2 °F 29.9 in Calm   1 mph 79% 0 in 0 W/m2
01:24 65.7 °F 59.4 °F 29.9 in Calm     80% 0 in 0 W/m2
01:29 65.5 °F 59.2 °F 29.9 in Calm     80% 0 in 0 W/m2
01:34 65.3 °F 59 °F 29.9 in Calm     80% 0 in 0 W/m2
01:39 65.1 °F 58.8 °F 29.9 in Calm     80% 0 in 0 W/m2
01:44 64.9 °F 58.6 °F 29.9 in Calm     80% 0 in 0 W/m2
01:49 64.9 °F 58.6 °F 29.9 in Calm     80% 0 in 0 W/m2
01:54 64.8 °F 58.8 °F 29.9 in Calm     81% 0 in 0 W/m2
01:59 64.6 °F 58.6 °F 29.9 in Calm     81% 0 in 0 W/m2
02:04 64.4 °F 58.5 °F 29.9 in Calm     81% 0 in 0 W/m2
02:09 64.2 °F 58.3 °F 29.9 in Calm     81% 0 in 0 W/m2
02:14 64.2 °F 58.3 °F 29.9 in Calm     81% 0 in 0 W/m2
02:19 64 °F 58.5 °F 29.9 in Calm     82% 0 in 0 W/m2
02:24 63.9 °F 58.3 °F 29.9 in Calm     82% 0 in 0 W/m2
02:29 63.7 °F 58.1 °F 29.9 in Calm     82% 0 in 0 W/m2
02:34 63.7 °F 58.1 °F 29.9 in Calm     82% 0 in 0 W/m2
02:39 63.3 °F 58.1 °F 29.9 in Calm     83% 0 in 0 W/m2
02:44 63.1 °F 57.9 °F 29.9 in Calm     83% 0 in 0 W/m2
02:49 63.1 °F 57.9 °F 29.9 in Calm     83% 0 in 0 W/m2
02:54 63 °F 58.1 °F 29.9 in Calm     84% 0 in 0 W/m2
02:59 62.8 °F 57.9 °F 29.9 in Calm     84% 0 in 0 W/m2
03:04 62.8 °F 57.9 °F 29.9 in Calm     84% 0 in 0 W/m2
03:09 62.6 °F 57.7 °F 29.9 in Calm     84% 0 in 0 W/m2
03:14 62.4 °F 57.6 °F 29.9 in Calm     84% 0 in 0 W/m2
03:19 62.4 °F 57.6 °F 29.9 in SSE 0.9 mph 1 mph 84% 0 in 0 W/m2
03:24 62.2 °F 57.7 °F 29.9 in Calm   1 mph 85% 0 in 0 W/m2
03:29 62.2 °F 57.7 °F 29.9 in SSE 0.9 mph 1 mph 85% 0 in 0 W/m2
03:34 62.2 °F 57.7 °F 29.9 in Calm     85% 0 in 0 W/m2
03:39 62.2 °F 57.4 °F 29.9 in SSE 2 mph 2 mph 84% 0 in 0 W/m2
03:44 62.1 °F 57.2 °F 29.9 in SSE 0.9 mph 2 mph 84% 0 in 0 W/m2
03:49 62.1 °F 57.2 °F 29.9 in SSE 0.9 mph 1 mph 84% 0 in 0 W/m2
03:54 62.1 °F 57.2 °F 29.9 in Calm   2 mph 84% 0 in 0 W/m2
03:59 61.9 °F 57 °F 29.9 in Calm     84% 0 in 0 W/m2
04:04 61.9 °F 57 °F 29.9 in Calm     84% 0 in 0 W/m2
04:09 61.9 °F 57.4 °F 29.9 in Calm     85% 0 in 0 W/m2
04:14 61.9 °F 57.4 °F 29.9 in Calm     85% 0 in 0 W/m2
04:19 61.7 °F 57.2 °F 29.9 in Calm     85% 0 in 0 W/m2
04:24 61.7 °F 57.2 °F 29.9 in Calm     85% 0 in 0 W/m2
04:29 61.5 °F 57 °F 29.9 in SSE 0.9 mph 1 mph 85% 0 in 0 W/m2
04:34 61.5 °F 57 °F 29.9 in Calm   1 mph 85% 0 in 0 W/m2
04:40 61.5 °F 57 °F 29.9 in Calm     85% 0 in 0 W/m2
04:45 61.3 °F 56.8 °F 29.9 in Calm     85% 0 in 0 W/m2
04:50 61.3 °F 56.8 °F 29.9 in Calm     85% 0 in 0 W/m2
04:55 61.3 °F 56.8 °F 29.9 in Calm     85% 0 in 0 W/m2
05:00 61.2 °F 56.7 °F 29.9 in Calm     85% 0 in 0 W/m2
05:05 61 °F 56.8 °F 29.9 in Calm     86% 0 in 0 W/m2
05:10 61 °F 56.8 °F 29.9 in Calm     86% 0 in 0 W/m2
05:15 61 °F 56.8 °F 29.9 in Calm     86% 0 in 0 W/m2
05:20 60.8 °F 56.7 °F 29.9 in Calm     86% 0 in 0 W/m2
05:25 60.8 °F 56.7 °F 29.9 in Calm   1 mph 86% 0 in 0 W/m2
05:30 60.6 °F 56.5 °F 29.9 in Calm     86% 0 in 0 W/m2
05:35 60.6 °F 56.5 °F 29.9 in Calm     86% 0 in 5 W/m2
05:41 60.6 °F 56.7 °F 29.9 in SSE 0.9 mph 1 mph 87% 0 in 7 W/m2
05:46 60.6 °F 56.7 °F 29.9 in Calm     87% 0 in 11 W/m2
05:51 60.6 °F 56.7 °F 29.9 in Calm     87% 0 in 12 W/m2
05:56 61 °F 57 °F 29.9 in Calm     87% 0 in 14 W/m2
06:01 61 °F 56.8 °F 29.9 in Calm     86% 0 in 18 W/m2
06:06 61 °F 56.8 °F 29.9 in Calm     86% 0 in 19 W/m2
06:11 61.2 °F 57 °F 29.9 in Calm     86% 0 in 21 W/m2
06:16 61.3 °F 57.2 °F 29.9 in Calm     86% 0 in 23 W/m2
06:21 61.7 °F 57.2 °F 29.9 in SSE 0.9 mph 1 mph 85% 0 in 25 W/m2
06:26 62.1 °F 57.2 °F 29.9 in Calm     84% 0 in 28 W/m2
06:31 62.4 °F 57.2 °F 29.9 in NE 0.9 mph 2 mph 83% 0 in 32 W/m2
06:36 63 °F 57.4 °F 29.9 in Calm     82% 0 in 44 W/m2
06:41 63.3 °F 57.4 °F 29.9 in ENE 0.9 mph 2 mph 81% 0 in 51 W/m2
06:46 63.9 °F 57.6 °F 29.9 in Calm   2 mph 80% 0 in 44 W/m2
06:51 64.2 °F 57.6 °F 29.9 in ENE 0.9 mph 1 mph 79% 0 in 40 W/m2
06:56 64.6 °F 57.6 °F 29.9 in ENE 0.9 mph 2 mph 78% 0 in 42 W/m2
07:01 64.8 °F 57.7 °F 29.9 in Calm   1 mph 78% 0 in 42 W/m2
07:06 64.9 °F 57.9 °F 29.9 in NE 0.9 mph 2 mph 78% 0 in 42 W/m2
07:11 64.9 °F 57.6 °F 29.9 in East 2 mph 3 mph 77% 0 in 44 W/m2
07:16 65.1 °F 57.7 °F 29.9 in East 0.9 mph 2 mph 77% 0 in 46 W/m2
07:26 65.7 °F 57.9 °F 29.9 in Calm   2 mph 76% 0 in 47 W/m2
07:31 65.7 °F 57.6 °F 29.9 in NE 2 mph 2 mph 75% 0 in 49 W/m2
07:36 65.8 °F 57.7 °F 29.9 in Calm   3 mph 75% 0 in 49 W/m2
07:41 66 °F 57.9 °F 29.9 in ENE 2 mph 3 mph 75% 0 in 121 W/m2
07:47 66.4 °F 58.3 °F 29.9 in ENE 2 mph 4 mph 75% 0 in 230 W/m2
07:52 66.7 °F 58.1 °F 29.9 in NW 0.9 mph 3 mph 74% 0 in 243 W/m2
07:57 67.5 °F 58.8 °F 29.9 in East 0.9 mph 4 mph 74% 0 in 257 W/m2
08:02 68.2 °F 58.8 °F 29.9 in ENE 2 mph 4 mph 72% 0 in 267 W/m2
08:07 68.7 °F 59 °F 29.9 in ESE 2 mph 3 mph 71% 0 in 279 W/m2
08:12 69.4 °F 59.2 °F 29.9 in NNE 0.9 mph 5 mph 70% 0 in 258 W/m2
08:17 69.4 °F 58.8 °F 29.9 in ENE 2 mph 4 mph 69% 0 in 130 W/m2
08:22 69.8 °F 59.2 °F 29.9 in NE 0.9 mph 3 mph 69% 0 in 69 W/m2
08:27 70.2 °F 59.2 °F 29.9 in NE 2.9 mph 4 mph 68% 0 in 69 W/m2
08:32 70.3 °F 59.4 °F 29.9 in ENE 2.9 mph 3 mph 68% 0 in 70 W/m2
08:37 70.5 °F 59.4 °F 29.9 in NE 2.9 mph 3 mph 68% 0 in 70 W/m2
08:42 71.1 °F 59.9 °F 29.9 in Calm   6 mph 68% 0 in 74 W/m2
08:47 71.2 °F 60.1 °F 29.9 in East 0.9 mph 3 mph 68% 0 in 74 W/m2
08:52 71.4 °F 59.9 °F 29.9 in ENE 2 mph 4 mph 67% 0 in 72 W/m2
08:57 71.8 °F 60.3 °F 29.9 in ENE 0.9 mph 2 mph 67% 0 in 72 W/m2
09:02 72 °F 59.9 °F 29.9 in ESE 2 mph 5 mph 66% 0 in 104 W/m2
09:07 72 °F 59.9 °F 29.9 in East 2 mph 5 mph 66% 0 in 220 W/m2
09:12 72.1 °F 60.1 °F 29.9 in ENE 2.9 mph 3 mph 66% 0 in 295 W/m2
09:17 72.3 °F 60.3 °F 29.9 in ESE 4 mph 5 mph 66% 0 in 446 W/m2
09:22 72.9 °F 60.8 °F 29.9 in East 0.9 mph 2 mph 66% 0 in 466 W/m2
09:27 73 °F 60.6 °F 29.9 in NE 0.9 mph 4 mph 65% 0 in 531 W/m2
09:32 73.2 °F 60.8 °F 29.9 in SE 0.9 mph 2 mph 65% 0 in 608 W/m2
09:37 73.2 °F 61.2 °F 29.9 in ENE 2.9 mph 3 mph 66% 0 in 181 W/m2
09:42 73 °F 60.6 °F 29.9 in Calm   3 mph 65% 0 in 188 W/m2
09:48 73.2 °F 61.2 °F 29.9 in ENE 0.9 mph 2 mph 66% 0 in 343 W/m2
09:53 73.2 °F 60.8 °F 29.9 in NE 2 mph 3 mph 65% 0 in 248 W/m2
09:58 73 °F 61 °F 29.9 in ENE 0.9 mph 3 mph 66% 0 in 376 W/m2
10:03 73.4 °F 61.7 °F 29.9 in ENE 2 mph 2 mph 67% 0 in 260 W/m2
10:08 73.6 °F 61.5 °F 29.9 in Calm   1 mph 66% 0 in 234 W/m2
10:13 73.9 °F 61.9 °F 29.9 in East 2.9 mph 3 mph 66% 0 in 130 W/m2
10:18 74.3 °F 61.3 °F 29.9 in SE 0.9 mph 2 mph 64% 0 in 169 W/m2
10:23 74.8 °F 62.8 °F 29.9 in South 0.9 mph 2 mph 66% 0 in 598 W/m2
10:28 75.4 °F 62.8 °F 29.9 in WNW 2.9 mph 3 mph 65% 0 in 610 W/m2
10:33 75.6 °F 62.1 °F 29.9 in West 2 mph 3 mph 63% 0 in 624 W/m2
10:38 75.7 °F 62.2 °F 29.9 in ESE 2 mph 2 mph 63% 0 in 640 W/m2
10:43 76.5 °F 63 °F 29.9 in ESE 0.9 mph 3 mph 63% 0 in 652 W/m2
10:48 76.8 °F 63.3 °F 29.9 in NNE 2 mph 2 mph 63% 0 in 663 W/m2
10:53 77.2 °F 62.6 °F 29.9 in West 4 mph 7 mph 61% 0 in 679 W/m2
10:58 76.8 °F 63.7 °F 29.9 in NNE 0.9 mph 2 mph 64% 0 in 684 W/m2
11:03 77 °F 63.5 °F 29.9 in ENE 2 mph 7 mph 63% 0 in 693 W/m2
11:08 77.5 °F 63.9 °F 29.9 in North 2.9 mph 3 mph 63% 0 in 703 W/m2
11:14 77.7 °F 63.7 °F 29.8 in WNW 0.9 mph 4 mph 62% 0 in 710 W/m2
11:19 77.9 °F 63.9 °F 29.8 in NNW 0.9 mph 4 mph 62% 0 in 721 W/m2
11:24 78.1 °F 64.4 °F 29.8 in WSW 2 mph 4 mph 63% 0 in 726 W/m2
11:29 78.3 °F 64.2 °F 29.8 in NNW 2 mph 2 mph 62% 0 in 735 W/m2
11:34 79 °F 64.8 °F 29.8 in NW 4 mph 7 mph 62% 0 in 744 W/m2
11:39 79.3 °F 65.1 °F 29.8 in North 2.9 mph 3 mph 62% 0 in 751 W/m2
11:44 79.7 °F 65.5 °F 29.8 in Calm   7 mph 62% 0 in 756 W/m2
11:49 79.9 °F 65.3 °F 29.8 in NW 4 mph 4 mph 61% 0 in 770 W/m2
11:54 79.9 °F 65.3 °F 29.8 in NNE 4 mph 4 mph 61% 0 in 775 W/m2
11:59 80.1 °F 65.5 °F 29.8 in West 6 mph 8 mph 61% 0 in 782 W/m2
12:09 80.1 °F 65.8 °F 29.8 in NW 2 mph 8 mph 62% 0 in 786 W/m2
12:14 80.4 °F 66.2 °F 29.8 in NW 2 mph 3 mph 62% 0 in 796 W/m2
12:19 80.8 °F 66 °F 29.8 in NW 2 mph 7 mph 61% 0 in 805 W/m2
12:24 81 °F 66.2 °F 29.8 in NNW 0.9 mph 4 mph 61% 0 in 810 W/m2
12:29 81.1 °F 66.9 °F 29.8 in North 2 mph 3 mph 62% 0 in 817 W/m2
12:34 81.3 °F 67.1 °F 29.8 in West 0.9 mph 2 mph 62% 0 in 823 W/m2
12:39 82 °F 67.3 °F 29.8 in ESE 2 mph 4 mph 61% 0 in 831 W/m2
12:44 82.4 °F 66.6 °F 29.8 in West 0.9 mph 3 mph 59% 0 in 833 W/m2
12:49 82.2 °F 66.4 °F 29.8 in NE 0.9 mph 5 mph 59% 0 in 844 W/m2
12:54 82.2 °F 66.9 °F 29.8 in NNW 2.9 mph 3 mph 60% 0 in 861 W/m2
12:59 82.2 °F 66.9 °F 29.8 in SSW 0.9 mph 4 mph 60% 0 in 854 W/m2
13:04 82.6 °F 67.8 °F 29.8 in West 4 mph 7 mph 61% 0 in 886 W/m2
13:09 82.2 °F 66.4 °F 29.8 in WNW 2 mph 9 mph 59% 0 in 925 W/m2
13:14 81.7 °F 67.5 °F 29.8 in West 2.9 mph 7 mph 62% 0 in 954 W/m2
13:19 81.7 °F 67.5 °F 29.8 in West 6 mph 10 mph 62% 0 in 260 W/m2
13:24 81.9 °F 67.6 °F 29.8 in WNW 2 mph 4 mph 62% 0 in 998 W/m2
13:29 82 °F 67.3 °F 29.8 in Calm   10 mph 61% 0 in 353 W/m2
13:34 82.2 °F 68.4 °F 29.8 in ESE 0.9 mph 2 mph 63% 0 in 610 W/m2
13:39 82.9 °F 68.5 °F 29.8 in SSE 0.9 mph 6 mph 62% 0 in 610 W/m2
13:44 83.1 °F 68.4 °F 29.8 in NW 4 mph 7 mph 61% 0 in 288 W/m2
13:49 82.8 °F 68 °F 29.8 in SW 0.9 mph 8 mph 61% 0 in 285 W/m2
13:54 82.2 °F 67.8 °F 29.8 in WNW 0.9 mph 3 mph 62% 0 in 601 W/m2
13:59 82.4 °F 68.5 °F 29.8 in Calm   8 mph 63% 0 in 362 W/m2
14:04 82.6 °F 68.2 °F 29.8 in ENE 0.9 mph 4 mph 62% 0 in 279 W/m2
14:09 82.2 °F 67.5 °F 29.8 in NW 4.9 mph 5 mph 61% 0 in 306 W/m2
14:14 82 °F 66.7 °F 29.8 in WNW 2.9 mph 6 mph 60% 0 in 415 W/m2
14:19 82.2 °F 67.5 °F 29.8 in Calm   1 mph 61% 0 in 462 W/m2
14:24 82.8 °F 68 °F 29.8 in WNW 2 mph 3 mph 61% 0 in 962 W/m2
14:29 83.5 °F 68.2 °F 29.8 in NNE 4 mph 4 mph 60% 0 in 831 W/m2
14:34 83.8 °F 69.4 °F 29.8 in NNW 2 mph 3 mph 62% 0 in 803 W/m2
14:39 84.4 °F 68.9 °F 29.8 in North 4.9 mph 5 mph 60% 0 in 788 W/m2
14:44 84.9 °F 69.4 °F 29.8 in East 4 mph 4 mph 60% 0 in 698 W/m2
14:49 85.1 °F 68.7 °F 29.8 in West 0.9 mph 2 mph 58% 0 in 789 W/m2
14:54 84.9 °F 68.5 °F 29.8 in East 0.9 mph 2 mph 58% 0 in 441 W/m2
14:59 84.7 °F 68.4 °F 29.8 in West 2.9 mph 5 mph 58% 0 in 438 W/m2
15:04 84.6 °F 68.7 °F 29.8 in WNW 2.9 mph 5 mph 59% 0 in 729 W/m2
15:09 84.7 °F 68.4 °F 29.8 in NW 2.9 mph 3 mph 58% 0 in 522 W/m2
15:14 84.4 °F 68.5 °F 29.8 in West 4 mph 8 mph 59% 0 in 179 W/m2
15:19 83.7 °F 68.4 °F 29.8 in WSW 0.9 mph 4 mph 60% 0 in 162 W/m2
15:24 83.1 °F 68.4 °F 29.8 in West 4 mph 8 mph 61% 0 in 123 W/m2
15:29 82.4 °F 68 °F 29.8 in West 2 mph 3 mph 62% 0 in 88 W/m2
15:34 82 °F 68.2 °F 29.8 in WNW 2.9 mph 7 mph 63% 0 in 76 W/m2
15:39 81.7 °F 67.8 °F 29.8 in NW 2.9 mph 4 mph 63% 0 in 56 W/m2
15:44 81.1 °F 68.2 °F 29.8 in WSW 2 mph 7 mph 65% 0 in 30 W/m2
15:49 80.2 °F 65.5 °F 29.8 in NNW 0.9 mph 14 mph 61% 0 in 12 W/m2
15:54 76.6 °F 63.5 °F 29.9 in WNW 6 mph 11 mph 64% 0 in 14 W/m2
15:59 74.5 °F 64 °F 29.9 in West 6.9 mph 11 mph 70% 0 in 12 W/m2
16:05 73.2 °F 63.7 °F 29.9 in NW 10.1 mph 10 mph 72% 0 in 11 W/m2
16:10 72.1 °F 63 °F 29.9 in West 11 mph 17 mph 73% 0 in 9 W/m2
16:15 71.2 °F 63.3 °F 29.9 in West 8.9 mph 16 mph 76% 0 in 7 W/m2
16:20 70.3 °F 63.9 °F 29.9 in West 6 mph 17 mph 80% 0 in 7 W/m2
16:25 69.4 °F 64 °F 29.9 in SW 2 mph 7 mph 83% 0 in 7 W/m2
16:30 68.9 °F 63.9 °F 29.9 in NW 4.9 mph 11 mph 84% 0.01 in 9 W/m2
16:35 68.5 °F 63.5 °F 29.9 in West 6.9 mph 10 mph 84% 0.02 in 11 W/m2
16:40 68.7 °F 63.7 °F 29.9 in West 4 mph 11 mph 84% 0.02 in 12 W/m2
16:45 68.5 °F 63.5 °F 29.9 in WSW 4 mph 7 mph 84% 0.02 in 14 W/m2
16:50 67.8 °F 62.4 °F 29.9 in West 6 mph 8 mph 83% 0.02 in 18 W/m2
16:55 67.8 °F 62.4 °F 29.9 in WSW 6.9 mph 7 mph 83% 0.02 in 23 W/m2
17:00 68 °F 63 °F 29.9 in West 4 mph 4 mph 84% 0.03 in 30 W/m2
17:05 67.8 °F 63.1 °F 29.9 in Calm   3 mph 85% 0.03 in 37 W/m2
17:10 67.6 °F 63 °F 29.9 in SSE 0.9 mph 2 mph 85% 0.04 in 47 W/m2
17:15 67.5 °F 63.1 °F 29.9 in Calm   3 mph 86% 0.04 in 62 W/m2
17:20 67.5 °F 63.9 °F 29.9 in West 2 mph 3 mph 88% 0.04 in 76 W/m2
17:25 67.5 °F 63.9 °F 29.8 in West 0.9 mph 2 mph 88% 0.04 in 91 W/m2
17:30 67.6 °F 64.6 °F 29.8 in Calm     90% 0.03 in 109 W/m2
17:35 67.6 °F 64.9 °F 29.8 in Calm     91% 0.02 in 144 W/m2
17:40 67.8 °F 65.1 °F 29.8 in Calm     91% 0.02 in 163 W/m2
17:45 68.2 °F 65.1 °F 29.9 in Calm   1 mph 90% 0.02 in 162 W/m2
17:50 68.4 °F 64.9 °F 29.9 in Calm     89% 0.02 in 156 W/m2
17:55 68.7 °F 65.3 °F 29.9 in West 0.9 mph 2 mph 89% 0.02 in 160 W/m2
18:00 69.1 °F 65.3 °F 29.9 in Calm   1 mph 88% 0.01 in 160 W/m2
18:05 69.4 °F 65.7 °F 29.9 in Calm     88% 0.01 in 137 W/m2
18:10 69.6 °F 65.8 °F 29.9 in ENE 2 mph 2 mph 88% 0 in 125 W/m2
18:15 69.8 °F 65.8 °F 29.9 in Calm   1 mph 87% 0 in 104 W/m2
18:20 70 °F 66.2 °F 29.9 in SE 0.9 mph 2 mph 88% 0 in 98 W/m2
18:25 70.2 °F 66.4 °F 29.9 in NE 0.9 mph 2 mph 88% 0 in 79 W/m2
18:30 70.2 °F 66 °F 29.9 in Calm   1 mph 87% 0 in 69 W/m2
18:35 70.2 °F 66.4 °F 29.9 in Calm     88% 0 in 77 W/m2
18:40 70 °F 66.2 °F 29.9 in Calm   1 mph 88% 0 in 95 W/m2
18:45 70 °F 66.6 °F 29.9 in Calm     89% 0 in 105 W/m2
18:51 70 °F 66.6 °F 29.9 in Calm     89% 0 in 109 W/m2
18:56 70 °F 66.2 °F 29.9 in Calm   1 mph 88% 0 in 98 W/m2
19:01 70.2 °F 66.4 °F 29.9 in Calm     88% 0 in 98 W/m2
19:06 70.3 °F 66.9 °F 29.8 in Calm   1 mph 89% 0 in 121 W/m2
19:11 70.3 °F 66.6 °F 29.8 in ESE 2 mph 2 mph 88% 0 in 137 W/m2
19:16 70.5 °F 66.4 °F 29.8 in Calm     87% 0 in 142 W/m2
19:21 70.7 °F 66.6 °F 29.8 in Calm   1 mph 87% 0 in 134 W/m2
19:26 70.9 °F 66.6 °F 29.8 in Calm   1 mph 86% 0 in 128 W/m2
19:31 71.1 °F 66.4 °F 29.8 in East 0.9 mph 2 mph 85% 0 in 107 W/m2
19:36 71.1 °F 66.4 °F 29.8 in Calm     85% 0 in 104 W/m2
19:41 71.1 °F 66.7 °F 29.8 in Calm   1 mph 86% 0 in 116 W/m2
19:46 71.1 °F 66.7 °F 29.8 in ESE 0.9 mph 2 mph 86% 0 in 114 W/m2
19:51 71.1 °F 66.7 °F 29.8 in Calm     86% 0 in 104 W/m2
19:56 71.2 °F 66.9 °F 29.8 in Calm   1 mph 86% 0 in 95 W/m2
20:01 71.2 °F 67.1 °F 29.8 in Calm   1 mph 87% 0 in 93 W/m2
20:06 71.2 °F 67.1 °F 29.8 in Calm   1 mph 87% 0 in 213 W/m2
20:11 72 °F 67.5 °F 29.8 in SE 0.9 mph 3 mph 86% 0 in 190 W/m2
20:16 72.1 °F 67.1 °F 29.8 in Calm   1 mph 84% 0 in 148 W/m2
20:21 72.3 °F 67.3 °F 29.8 in Calm   3 mph 84% 0 in 113 W/m2
20:31 72.7 °F 67.3 °F 29.8 in Calm   1 mph 83% 0 in 72 W/m2
20:36 72.7 °F 67.3 °F 29.8 in Calm   1 mph 83% 0 in 76 W/m2
20:41 72.7 °F 67.3 °F 29.8 in Calm     83% 0 in 67 W/m2
20:46 72.7 °F 67.3 °F 29.8 in Calm     83% 0 in 67 W/m2
20:51 72.5 °F 67.1 °F 29.8 in Calm   1 mph 83% 0 in 49 W/m2
20:56 72.3 °F 66.9 °F 29.8 in Calm     83% 0 in 47 W/m2
21:01 72 °F 66.6 °F 29.8 in Calm   1 mph 83% 0 in 23 W/m2
21:06 71.8 °F 66.7 °F 29.8 in SE 0.9 mph 1 mph 84% 0 in 25 W/m2
21:11 71.2 °F 66.6 °F 29.8 in Calm   1 mph 85% 0 in 18 W/m2
21:16 70.9 °F 66.2 °F 29.8 in Calm   1 mph 85% 0 in 14 W/m2
21:21 70.3 °F 66 °F 29.9 in Calm     86% 0 in 12 W/m2
21:26 70 °F 65.7 °F 29.9 in Calm   1 mph 86% 0 in 9 W/m2
21:31 69.4 °F 65.5 °F 29.9 in Calm     87% 0 in 7 W/m2
21:36 69.3 °F 65.3 °F 29.9 in Calm     87% 0 in 5 W/m2
21:41 68.7 °F 64.9 °F 29.9 in Calm     88% 0 in 0 W/m2
21:46 68.2 °F 64.4 °F 29.9 in Calm     88% 0 in 0 W/m2
21:51 67.8 °F 64.4 °F 29.9 in Calm     89% 0 in 0 W/m2
21:56 67.5 °F 64 °F 29.9 in Calm     89% 0 in 0 W/m2
22:01 67.3 °F 64.2 °F 29.9 in Calm     90% 0 in 0 W/m2
22:06 66.7 °F 63.7 °F 29.9 in Calm     90% 0 in 0 W/m2
22:11 66.6 °F 63.9 °F 29.9 in Calm     91% 0 in 0 W/m2
22:16 66.4 °F 63.7 °F 29.9 in Calm     91% 0 in 0 W/m2
22:21 66.2 °F 63.9 °F 29.9 in Calm     92% 0 in 0 W/m2
22:26 66 °F 63.7 °F 29.9 in Calm     92% 0 in 0 W/m2
22:32 65.8 °F 63.5 °F 29.9 in Calm     92% 0 in 0 W/m2
22:37 65.7 °F 63.3 °F 29.9 in Calm     92% 0 in 0 W/m2
22:42 65.7 °F 63.5 °F 29.9 in Calm     93% 0 in 0 W/m2
22:47 65.5 °F 63.3 °F 29.9 in Calm     93% 0 in 0 W/m2
22:52 65.5 °F 63.3 °F 29.9 in Calm     93% 0 in 0 W/m2
22:57 65.3 °F 63.5 °F 29.9 in Calm     94% 0 in 0 W/m2
23:02 65.1 °F 63.3 °F 29.9 in Calm     94% 0 in 0 W/m2
23:07 65.1 °F 63.3 °F 29.9 in Calm     94% 0 in 0 W/m2
23:12 65.1 °F 63.3 °F 29.9 in Calm     94% 0 in 0 W/m2
23:17 65.1 °F 63.3 °F 29.8 in Calm     94% 0 in 0 W/m2
23:22 64.9 °F 63.1 °F 29.8 in Calm     94% 0 in 0 W/m2
23:27 64.9 °F 63.1 °F 29.8 in Calm     94% 0 in 0 W/m2
23:32 64.8 °F 63 °F 29.8 in Calm     94% 0 in 0 W/m2
23:37 64.6 °F 62.8 °F 29.8 in Calm     94% 0 in 0 W/m2
23:42 64.6 °F 62.8 °F 29.8 in Calm     94% 0 in 0 W/m2
23:47 64.6 °F 63.1 °F 29.8 in Calm     95% 0 in 0 W/m2
23:52 64.6 °F 63.1 °F 29.8 in Calm     95% 0 in 0 W/m2
23:57 64.4 °F 63 °F 29.8 in Calm     95% 0 in 0 W/m2
Juneau County Weather
Compliments of Weather Underground - 4 mb